Terminal Aerodrome Forecast
Issued by NWS

Home | Current Version | Previous Version | Text Only | Print | Product List | Glossary On
Versions: 1 2 3 4 5 6 7 8 9 10 11 12
747
FTUS43 KGRB 091738
TAFMTW
TAF
KMTW 091738Z 0918/1018 33014G24KT P6SM -SN OVC045
      TEMPO 0923/1001 4SM -SN BKN020
     FM100600 32014G22KT P6SM BKN040
      TEMPO 1009/1012 SCT040
     FM101400 32012G20KT P6SM OVC050=

USA.gov is the U.S. government's official web portal to all federal, state and local government web resources and services.